Third Lake, Illinois
Current Conditions -  °F | °C
As of 11:55 AM on Saturday 25 Oct 2014 (Local Time) from KUGN Reporting Station
Clear Clear  
Wind Chill: 66°   Ceiling: Unl
Heat Index: 66°   Visibility: 10mi
Dew Point: 38°   Wind: 12mph
Humidity: 36%   Direction: 290°WNW
Pressure: 29.93"   Gusts: 17mph
Location:  42.3279°N, 88.0546°W
Report Text: KUGN 251655Z 29010G15KT 10SM CLR 19/03 A2993 RMK AO2 SLP130 T01890033
Loading
Personal Weather Stations






























Interactive Weather Map
Tropical Storm Tracking
New forecast layout! Learn more

10-Day Weather Forecast

Advertisements
Track Severe Weather on mobile